Flight Track Log - Related Links

Times and Time Zones

All times are in EDT time to prevent confusion due to time zone crossing. See the SWA4555 flight status page for this flight to view local times or setup timezone preferences in your user account.

Time Position Orientation Groundspeed Altitude Reporting Facility
EDT Latitude Longitude Course Direction KTS MPH feet Rate Location/Type
Sun 06:54:32 PM 32.7450 -117.2208 301° West 165 190 1,400  Level Los Angeles Center
Sun 06:55:34 PM 32.7758 -117.2808 301° West 204 235 3,600 2,855 Climbing Los Angeles Center
Sun 06:56:36 PM 32.8164 -117.3547 303° West 246 283 7,300 3,823 Climbing Los Angeles Center
Sun 06:57:38 PM 32.8567 -117.4292 303° West 263 303 11,500 2,952 Climbing Los Angeles Center
Sun 06:58:40 PM 32.9133 -117.5081 311° West 319 367 13,400 2,419 Climbing Los Angeles Center
Sun 06:59:42 PM 32.9978 -117.5689 329° Northwest 347 399 16,500 2,515 Climbing Los Angeles Center
Sun 07:00:56 PM 33.0669 -117.6600 312° West 368 423 19,100 1,007 Climbing Los Angeles Center
Sun 07:02:11 PM 33.1550 -117.7961 308° West 370 426 19,000 701 Descending Los Angeles Center
Sun 07:03:13 PM 33.2125 -117.9231 298° West 366 421 20,700 1,935 Climbing Los Angeles Center
Sun 07:04:15 PM 33.2497 -118.0428 290° West 379 436 23,000 2,177 Climbing Los Angeles Center
Sun 07:05:17 PM 33.3000 -118.1528 299° West 383 441 25,200 2,177 Climbing Los Angeles Center
Sun 07:06:19 PM 33.3700 -118.2461 312° West 375 432 27,500 2,323 Climbing Los Angeles Center
Sun 07:07:21 PM 33.4406 -118.3381 313° West 375 432 30,000 1,392 Climbing Los Angeles Center
Sun 07:08:24 PM 33.5300 -118.4550 313° West 390 449 30,400 1,392 Climbing Los Angeles Center
Sun 07:09:26 PM 33.6044 -118.5550 312° West 396 456 32,900 1,742 Climbing Los Angeles Center
Sun 07:10:28 PM 33.6772 -118.6522 312° West 388 447 34,000 968 Climbing Los Angeles Center
Sun 07:11:30 PM 33.7531 -118.7528 312° West 401 461 34,900 968 Climbing Los Angeles Center
Sun 07:12:32 PM 33.8297 -118.8533 313° West 407 468 36,000 532 Climbing Los Angeles Center
Sun 07:13:34 PM 33.9039 -118.9536 312° West 402 463 36,000  Level Los Angeles Center
Sun 07:14:36 PM 33.9839 -119.0450 317° Northwest 395 455 36,000  Level Los Angeles Center
Sun 07:15:38 PM 34.0892 -119.1458 322° Northwest 401 461 36,000  Level Los Angeles Center
Sun 07:16:40 PM 34.1769 -119.2294 322° Northwest 401 461 36,000  Level Los Angeles Center
Sun 07:17:42 PM 34.2647 -119.3144 321° Northwest 404 465 36,000  Level Los Angeles Center
Sun 07:18:44 PM 34.3511 -119.3992 321° Northwest 400 460 36,000  Level Los Angeles Center
Sun 07:19:47 PM 34.4383 -119.4817 322° Northwest 398 458 36,000  Level Los Angeles Center
Sun 07:20:49 PM 34.5231 -119.5644 321° Northwest 393 452 36,000  Level Los Angeles Center
Sun 07:21:51 PM 34.6186 -119.6567 322° Northwest 393 452 36,000  Level Los Angeles Center
Sun 07:22:53 PM 34.7028 -119.7394 321° Northwest 392 451 36,000  Level Los Angeles Center
Sun 07:23:55 PM 34.7381 -119.8608 290° West 379 436 36,000  Level Los Angeles Center
Sun 07:24:57 PM 34.7742 -119.9819 290° West 379 436 36,000  Level Los Angeles Center
Sun 07:25:59 PM 34.8597 -120.0936 313° West 396 456 36,000  Level Los Angeles Center
Sun 07:27:01 PM 34.9447 -120.1617 327° Northwest 402 463 36,000  Level Los Angeles Center
Sun 07:28:03 PM 35.0356 -120.2353 326° Northwest 395 455 36,000  Level Los Angeles Center
Sun 07:29:05 PM 35.1439 -120.3219 327° Northwest 391 450 36,000  Level Los Angeles Center
Sun 07:30:08 PM 35.2347 -120.3953 327° Northwest 391 450 36,000  Level Los Angeles Center
Sun 07:31:10 PM 35.3239 -120.4692 326° Northwest 391 450 36,000  Level Los Angeles Center
Sun 07:31:43 PM 35.3767 -120.5128 326° Northwest 395 455 36,000  Level Oakland Center
Sun 07:32:45 PM 35.4697 -120.5889 326° Northwest 393 452 36,000  Level Oakland Center
Sun 07:33:46 PM 35.5603 -120.6625 327° Northwest 389 448 36,000  Level Oakland Center
Sun 07:34:47 PM 35.6497 -120.7367 326° Northwest 387 445 36,000  Level Oakland Center
Sun 07:35:49 PM 35.7400 -120.8114 326° Northwest 388 447 36,000 -293 Level Oakland Center
Sun 07:36:50 PM 35.8289 -120.8839 327° Northwest 385 443 35,400 -1,377 Descending Oakland Center
Sun 07:37:51 PM 35.9311 -120.9686 326° Northwest 370 426 33,200 -2,410 Descending Oakland Center
Sun 07:38:52 PM 36.0114 -121.0358 326° Northwest 353 406 30,500 -2,927 Descending Oakland Center
Sun 07:39:54 PM 36.0933 -121.1086 324° Northwest 359 413 27,200 -2,683 Descending Oakland Center
Sun 07:40:55 PM 36.1789 -121.1794 326° Northwest 367 422 25,000 -1,623 Descending Oakland Center
Sun 07:41:56 PM 36.2569 -121.2447 326° Northwest 338 389 23,900 -1,366 Descending Oakland Center
Sun 07:42:58 PM 36.3294 -121.3078 325° Northwest 323 372 22,200 -1,707 Descending Oakland Center
Sun 07:43:59 PM 36.3994 -121.3694 325° Northwest 307 353 20,400 -1,820 Descending Oakland Center
Sun 07:45:00 PM 36.4711 -121.4294 326° Northwest 309 356 18,500 -1,951 Descending Oakland Center
Sun 07:46:02 PM 36.5600 -121.4533 348° North 328 377 16,400 -1,951 Descending Oakland Center
Sun 07:47:03 PM 36.6639 -121.4758 350° North 313 360 14,500 -1,770 Descending Oakland Center
Sun 07:48:04 PM 36.7467 -121.4972 348° North 304 350 12,800 -1,610 Descending Oakland Center
Sun 07:49:06 PM 36.8222 -121.5175 348° North 293 337 11,200 -1,415 Descending Oakland Center
Sun 07:50:07 PM 36.8906 -121.5583 334° Northwest 272 313 9,900 -1,377 Descending Oakland Center
Sun 07:51:08 PM 36.9547 -121.5989 333° Northwest 261 300 8,400 -1,561 Descending Oakland Center
Sun 07:52:10 PM 37.0208 -121.6356 336° Northwest 259 298 6,700 -1,512 Descending Oakland Center
Sun 07:53:11 PM 37.0892 -121.6722 337° Northwest 264 304 5,300 -981 Descending Oakland Center
Sun 07:53:54 PM 37.1500 -121.7000 340° North 243 280 5,000 -492 Descending Northern Cal TRACON
Sun 07:54:12 PM 37.1650 -121.7133 325° Northwest 256 295 4,800 -1,350 Descending Oakland Center
Sun 07:55:14 PM 37.2153 -121.7633 322° Northwest 242 278 3,200 -1,122 Descending Oakland Center
Sun 07:56:15 PM 37.2592 -121.8167 316° Northwest 230 265 2,500 -787 Descending Oakland Center
Sun 07:57:16 PM 37.2931 -121.8542 319° Northwest 188 216 1,600 -780 Descending Oakland Center
Sun 07:58:18 PM 37.3219 -121.8858 319° Northwest 160 184 900 -683 Descending Oakland Center
Sun 07:59:19 PM 37.3475 -121.9147 318° Northwest 139 160 200 -689 Descending Oakland Center
Sun 08:01:00 PM 37.3500 -121.9167 North  Level FlightAware Approximate
Sun 08:08:00 PM 37.3627 -121.9291 North  Level Estimated

Login

Don't have an account? Register now (free) for customized features, flight alerts, and more!